Time;durP1;ratioP1;P1;durP2;ratioP2;P2;SDS_P1;SDS_P2;PMS_P1;PMS_P2;Temp;Humidity;BMP_temperature;BMP_pressure;BME280_temperature;BME280_humidity;BME280_pressure;Samples;Min_cycle;Max_cycle;Signal;HPM_P1;HPM_P2
2022/09/15 00:02:22;;;;;;;8.20;1.30;;;;;;;-145.67;100.00;66521.78;4934530;28;20039;-68
2022/09/15 00:04:49;;;;;;;9.23;1.30;;;;;;;-145.67;100.00;66521.78;4917532;28;20051;-68
2022/09/15 00:07:14;;;;;;;9.45;1.52;;;;;;;-145.67;100.00;66521.78;4926206;28;20044;-69
2022/09/15 00:09:40;;;;;;;7.88;1.40;;;;;;;-145.67;100.00;66521.78;4919516;28;20036;-69
2022/09/15 00:12:05;;;;;;;8.20;1.20;;;;;;;-145.67;100.00;66521.78;4925935;28;20058;-69
2022/09/15 00:14:31;;;;;;;9.90;1.58;;;;;;;-145.67;100.00;66521.78;4921879;28;20058;-68
2022/09/15 00:16:56;;;;;;;11.23;1.60;;;;;;;-145.67;100.00;66521.78;4915473;28;20490;-68
2022/09/15 00:19:26;;;;;;;6.95;1.40;;;;;;;-145.67;100.00;66521.78;4925174;28;20050;-68
2022/09/15 00:21:52;;;;;;;12.00;1.80;;;;;;;-145.67;100.00;66521.78;4924857;28;20039;-68
2022/09/15 00:24:19;;;;;;;19.42;1.77;;;;;;;-145.67;100.00;66521.78;4917283;28;20067;-68
2022/09/15 00:26:45;;;;;;;21.85;1.85;;;;;;;-145.67;100.00;66521.78;4918788;28;20035;-68
2022/09/15 00:29:10;;;;;;;13.07;2.22;;;;;;;-145.67;100.00;66521.78;4923378;28;20398;-69
2022/09/15 00:31:36;;;;;;;10.68;1.98;;;;;;;-145.67;100.00;66521.78;4925332;28;20031;-68
2022/09/15 00:34:04;;;;;;;8.48;1.55;;;;;;;-145.67;100.00;66521.78;4932211;28;20039;-69
2022/09/15 00:36:29;;;;;;;11.43;1.55;;;;;;;-145.67;100.00;66521.78;4919829;29;20143;-69
2022/09/15 00:38:55;;;;;;;10.63;1.75;;;;;;;-145.67;100.00;66521.78;4919431;28;20040;-68
2022/09/15 00:41:24;;;;;;;7.75;1.65;;;;;;;-145.67;100.00;66521.78;4923590;28;20043;-68
2022/09/15 00:44:00;;;;;;;10.10;1.67;;;;;;;-145.67;100.00;66521.78;4929365;28;20035;-68
2022/09/15 00:46:31;;;;;;;10.20;1.52;;;;;;;-145.67;100.00;66521.78;4924836;28;20042;-69
2022/09/15 00:48:59;;;;;;;12.38;1.67;;;;;;;-145.67;100.00;66521.78;4934438;28;20765;-69
2022/09/15 00:51:40;;;;;;;10.18;1.30;;;;;;;-145.67;100.00;66521.78;4923466;28;20031;-70
2022/09/15 00:54:17;;;;;;;11.00;1.30;;;;;;;-145.67;100.00;66521.78;4915990;28;20043;-70
2022/09/15 00:56:47;;;;;;;10.25;1.55;;;;;;;-145.67;100.00;66521.78;4932389;28;20059;-70
2022/09/15 00:59:16;;;;;;;13.40;1.60;;;;;;;-145.67;100.00;66521.78;4923111;28;20043;-68
2022/09/15 01:01:43;;;;;;;11.95;1.58;;;;;;;-145.67;100.00;66521.78;4918704;28;20049;-69
2022/09/15 01:04:09;;;;;;;8.73;1.45;;;;;;;-145.67;100.00;66521.78;4924932;28;20370;-70
2022/09/15 01:06:37;;;;;;;6.93;1.10;;;;;;;-145.67;100.00;66521.78;4923238;28;20136;-69
2022/09/15 01:09:17;;;;;;;7.95;1.02;;;;;;;-145.67;100.00;66521.78;4915079;28;20036;-69
2022/09/15 01:11:43;;;;;;;9.38;1.58;;;;;;;-145.67;100.00;66521.78;4922902;28;20242;-69
2022/09/15 01:14:11;;;;;;;5.72;1.33;;;;;;;-145.67;100.00;66521.78;4938265;28;20066;-69
2022/09/15 01:16:47;;;;;;;8.13;1.20;;;;;;;-145.67;100.00;66521.78;4923383;28;20057;-68
2022/09/15 01:19:31;;;;;;;10.45;1.38;;;;;;;-145.67;100.00;66521.78;4903576;28;20044;-69
2022/09/15 01:22:07;;;;;;;8.30;1.25;;;;;;;-145.67;100.00;66521.78;4923015;28;20039;-69
2022/09/15 01:24:44;;;;;;;8.23;1.15;;;;;;;-145.67;100.00;66521.78;4916407;29;20043;-70
2022/09/15 01:27:25;;;;;;;7.07;1.10;;;;;;;-145.67;100.00;66521.78;4921650;28;20099;-68
2022/09/15 01:30:07;;;;;;;9.68;1.58;;;;;;;-145.67;100.00;66521.78;4923118;28;20361;-68
2022/09/15 01:33:03;;;;;;;;;;;;;;;-145.67;100.00;66521.78;4910384;28;20608;-70
2022/09/15 01:35:32;;;;;;;14.73;1.63;;;;;;;-145.67;100.00;66521.78;4937426;28;19930;-66
2022/09/15 01:38:19;;;;;;;8.80;1.30;;;;;;;-145.67;100.00;66521.78;4923683;28;20039;-68
2022/09/15 01:40:59;;;;;;;8.05;1.13;;;;;;;-145.67;100.00;66521.78;4904068;28;20440;-69
2022/09/15 01:43:26;;;;;;;8.77;1.60;;;;;;;-145.67;100.00;66521.78;4921150;28;20039;-68
2022/09/15 01:45:52;;;;;;;7.20;1.20;;;;;;;-145.67;100.00;66521.78;4923205;28;20324;-67
2022/09/15 01:48:20;;;;;;;11.02;1.73;;;;;;;-145.67;100.00;66521.78;4907284;28;20170;-68
2022/09/15 01:50:51;;;;;;;9.30;1.48;;;;;;;-145.67;100.00;66521.78;4910984;28;20036;-68
2022/09/15 01:53:18;;;;;;;6.13;0.97;;;;;;;-145.67;100.00;66521.78;4921017;28;20074;-69
2022/09/15 01:55:59;;;;;;;11.35;1.25;;;;;;;-145.67;100.00;66521.78;4933447;28;22411;-69
2022/09/15 01:58:27;;;;;;;8.65;1.60;;;;;;;-145.67;100.00;66521.78;4922120;28;20153;-69
2022/09/15 02:00:57;;;;;;;8.65;1.30;;;;;;;-145.67;100.00;66521.78;4915605;28;20055;-69
2022/09/15 02:03:32;;;;;;;8.07;1.08;;;;;;;-145.67;100.00;66521.78;4917907;28;20222;-69
2022/09/15 02:06:08;;;;;;;7.40;1.10;;;;;;;-145.67;100.00;66521.78;4923948;28;20031;-68
2022/09/15 02:08:39;;;;;;;10.57;1.40;;;;;;;-145.67;100.00;66521.78;4921704;28;20571;-69
2022/09/15 02:11:24;;;;;;;6.40;1.10;;;;;;;-145.67;100.00;66521.78;4917758;28;20118;-68
2022/09/15 02:14:01;;;;;;;3.92;1.00;;;;;;;-145.67;100.00;66521.78;4920411;28;20118;-68
2022/09/15 02:16:31;;;;;;;7.88;0.90;;;;;;;-145.67;100.00;66521.78;4936543;28;20520;-68
2022/09/15 02:19:30;;;;;;;7.78;1.10;;;;;;;-145.67;100.00;66521.78;4922988;28;20360;-68
2022/09/15 02:22:13;;;;;;;10.40;1.20;;;;;;;-145.67;100.00;66521.78;4889090;28;20039;-68
2022/09/15 02:24:53;;;;;;;7.70;1.10;;;;;;;-145.67;100.00;66521.78;4922220;28;20039;-69
2022/09/15 02:27:22;;;;;;;8.50;1.35;;;;;;;-145.67;100.00;66521.78;4919007;28;20050;-69
2022/09/15 02:29:55;;;;;;;5.63;1.38;;;;;;;-145.67;100.00;66521.78;4937523;28;20035;-69
2022/09/15 02:32:24;;;;;;;10.75;1.20;;;;;;;-145.67;100.00;66521.78;4936262;28;20039;-69
2022/09/15 02:34:50;;;;;;;5.88;1.27;;;;;;;-145.67;100.00;66521.78;4923157;28;20173;-68
2022/09/15 02:37:18;;;;;;;8.00;1.23;;;;;;;-145.67;100.00;66521.78;4923197;28;20055;-69
2022/09/15 02:39:50;;;;;;;8.02;1.00;;;;;;;-145.67;100.00;66521.78;4938708;28;20735;-67
2022/09/15 02:42:36;;;;;;;8.27;1.60;;;;;;;-145.67;100.00;66521.78;4934734;28;20055;-68
2022/09/15 02:45:01;;;;;;;14.20;1.40;;;;;;;-145.67;100.00;66521.78;4917043;28;20295;-68
2022/09/15 02:47:30;;;;;;;10.88;1.50;;;;;;;-145.67;100.00;66521.78;4921877;28;20045;-69
2022/09/15 02:49:58;;;;;;;8.30;1.20;;;;;;;-145.67;100.00;66521.78;4936439;28;20567;-68
2022/09/15 02:52:25;;;;;;;8.18;1.08;;;;;;;-145.67;100.00;66521.78;4923179;28;20047;-69
2022/09/15 02:54:50;;;;;;;14.05;1.42;;;;;;;-145.67;100.00;66521.78;4920866;28;20475;-68
2022/09/15 02:57:18;;;;;;;7.07;1.08;;;;;;;-145.67;100.00;66521.78;4923418;28;20086;-68
2022/09/15 03:02:28;;;;;;;13.02;1.15;;;;;;;-145.67;100.00;66521.78;4914216;28;20039;-69
2022/09/15 03:04:54;;;;;;;10.15;1.58;;;;;;;-145.67;100.00;66521.78;4923871;28;20114;-69
2022/09/15 03:07:20;;;;;;;9.35;1.23;;;;;;;-145.67;100.00;66521.78;4914059;28;20090;-71
2022/09/15 03:09:46;;;;;;;6.10;0.95;;;;;;;-145.67;100.00;66521.78;4923972;28;20168;-69
2022/09/15 03:12:12;;;;;;;6.57;0.90;;;;;;;-145.67;100.00;66521.78;4923559;28;20035;-68
2022/09/15 03:14:39;;;;;;;6.20;1.25;;;;;;;-145.67;100.00;66521.78;4925648;28;20090;-69
2022/09/15 03:17:05;;;;;;;10.30;1.33;;;;;;;-145.67;100.00;66521.78;4914141;28;20054;-70
2022/09/15 03:19:30;;;;;;;8.30;1.10;;;;;;;-145.67;100.00;66521.78;4922631;28;20032;-69
2022/09/15 03:21:56;;;;;;;8.05;1.05;;;;;;;-145.67;100.00;66521.78;4921314;28;20047;-70
2022/09/15 03:24:22;;;;;;;14.68;1.27;;;;;;;-145.67;100.00;66521.78;4923838;28;20047;-69
2022/09/15 03:26:49;;;;;;;6.97;1.00;;;;;;;-145.67;100.00;66521.78;4921740;28;20118;-69
2022/09/15 03:29:15;;;;;;;4.82;1.15;;;;;;;-145.67;100.00;66521.78;4922540;28;20433;-68
2022/09/15 03:31:42;;;;;;;9.18;1.20;;;;;;;-145.67;100.00;66521.78;4921293;28;20035;-69
2022/09/15 03:34:10;;;;;;;15.65;1.80;;;;;;;-145.67;100.00;66521.78;4923353;28;20280;-68
2022/09/15 03:36:37;;;;;;;8.55;1.40;;;;;;;-145.67;100.00;66521.78;4920226;28;20075;-69
2022/09/15 03:39:02;;;;;;;10.73;1.35;;;;;;;-145.67;100.00;66521.78;4924020;28;20118;-68
2022/09/15 03:41:28;;;;;;;7.97;1.20;;;;;;;-145.67;100.00;66521.78;4941628;28;20515;-69
2022/09/15 03:43:56;;;;;;;8.43;1.17;;;;;;;-145.67;100.00;66521.78;4926507;28;20432;-68
2022/09/15 03:46:21;;;;;;;6.65;1.52;;;;;;;-145.67;100.00;66521.78;4923546;28;20083;-67
2022/09/15 03:48:47;;;;;;;6.55;1.58;;;;;;;-145.67;100.00;66521.78;4925253;28;20409;-68
2022/09/15 03:51:12;;;;;;;11.55;1.38;;;;;;;-145.67;100.00;66521.78;4925151;28;20047;-68
2022/09/15 03:53:39;;;;;;;7.75;1.40;;;;;;;-145.67;100.00;66521.78;4940044;28;20036;-69
2022/09/15 03:56:10;;;;;;;7.32;1.58;;;;;;;-145.67;100.00;66521.78;4926166;28;20066;-68
2022/09/15 03:58:35;;;;;;;6.72;1.38;;;;;;;-145.67;100.00;66521.78;4923871;28;20035;-69
2022/09/15 04:01:00;;;;;;;13.57;2.00;;;;;;;-145.67;100.00;66521.78;4924918;28;20051;-68
2022/09/15 04:03:26;;;;;;;11.30;1.33;;;;;;;-145.67;100.00;66521.78;4927107;28;20046;-68
2022/09/15 04:05:51;;;;;;;18.15;2.70;;;;;;;-145.67;100.00;66521.78;4926010;28;20556;-70
2022/09/15 04:08:19;;;;;;;20.88;2.55;;;;;;;-145.67;100.00;66521.78;4923241;28;20043;-68
2022/09/15 04:10:47;;;;;;;13.13;1.92;;;;;;;-145.67;100.00;66521.78;4925036;28;20045;-68
2022/09/15 04:13:12;;;;;;;9.63;1.67;;;;;;;-145.67;100.00;66521.78;4924449;28;20133;-68
2022/09/15 04:15:40;;;;;;;17.77;2.08;;;;;;;-145.67;100.00;66521.78;4939465;28;20677;-69
2022/09/15 04:18:05;;;;;;;10.05;1.75;;;;;;;-145.67;100.00;66521.78;4939188;28;20043;-69
2022/09/15 04:20:37;;;;;;;14.10;1.73;;;;;;;-145.67;100.00;66521.78;4938146;28;20035;-68
2022/09/15 04:23:05;;;;;;;7.75;1.60;;;;;;;-145.67;100.00;66521.78;4921504;28;20043;-68
2022/09/15 04:25:30;;;;;;;17.08;1.98;;;;;;;-145.67;100.00;66521.78;4924459;28;20034;-68
2022/09/15 04:27:56;;;;;;;9.45;1.73;;;;;;;-145.67;100.00;66521.78;4937393;28;20552;-68
2022/09/15 04:30:22;;;;;;;10.10;1.60;;;;;;;-145.67;100.00;66521.78;4919473;28;20039;-68
2022/09/15 04:32:51;;;;;;;10.40;1.75;;;;;;;-145.67;100.00;66521.78;4939928;28;20420;-68
2022/09/15 04:35:20;;;;;;;8.73;1.30;;;;;;;-145.67;100.00;66521.78;4923989;28;20051;-68
2022/09/15 04:37:46;;;;;;;11.00;1.80;;;;;;;-145.67;100.00;66521.78;4923738;28;20039;-67
2022/09/15 04:40:11;;;;;;;10.05;1.55;;;;;;;-145.67;100.00;66521.78;4916575;28;20063;-69
2022/09/15 04:42:37;;;;;;;11.57;1.98;;;;;;;-145.67;100.00;66521.78;4937154;28;20036;-69
2022/09/15 04:45:03;;;;;;;12.50;1.63;;;;;;;-145.67;100.00;66521.78;4922648;28;20036;-69
2022/09/15 04:47:30;;;;;;;14.20;1.73;;;;;;;-145.67;100.00;66521.78;4924365;28;20094;-69
2022/09/15 04:50:00;;;;;;;9.18;1.50;;;;;;;-145.67;100.00;66521.78;4925469;28;20082;-69
2022/09/15 04:52:26;;;;;;;10.10;1.95;;;;;;;-145.67;100.00;66521.78;4923212;28;20037;-69
2022/09/15 04:54:53;;;;;;;8.93;1.50;;;;;;;-145.67;100.00;66521.78;4936238;28;20047;-68
2022/09/15 04:57:19;;;;;;;9.73;1.40;;;;;;;-145.67;100.00;66521.78;4927287;28;20055;-71
2022/09/15 04:59:44;;;;;;;13.73;2.17;;;;;;;-145.67;100.00;66521.78;4923255;28;20138;-73
2022/09/15 05:02:09;;;;;;;12.85;2.00;;;;;;;-145.67;100.00;66521.78;4922166;28;20047;-71
2022/09/15 05:04:35;;;;;;;16.73;2.10;;;;;;;-145.67;100.00;66521.78;4923182;28;20404;-71
2022/09/15 05:07:01;;;;;;;17.25;1.90;;;;;;;-145.67;100.00;66521.78;4920530;28;20266;-72
2022/09/15 05:09:29;;;;;;;11.07;1.30;;;;;;;-145.67;100.00;66521.78;4937679;28;20040;-71
2022/09/15 05:11:55;;;;;;;9.75;1.83;;;;;;;-145.67;100.00;66521.78;4923916;28;20035;-71
2022/09/15 05:14:21;;;;;;;12.43;2.28;;;;;;;-145.67;100.00;66521.78;4939140;28;20047;-71
2022/09/15 05:16:46;;;;;;;14.95;2.58;;;;;;;-145.67;100.00;66521.78;4919942;28;20556;-72
2022/09/15 05:19:11;;;;;;;8.98;1.85;;;;;;;-145.67;100.00;66521.78;4923225;28;20031;-73
2022/09/15 05:21:37;;;;;;;14.98;1.77;;;;;;;-145.67;100.00;66521.78;4938277;28;20282;-72
2022/09/15 05:24:02;;;;;;;12.65;1.88;;;;;;;-145.67;100.00;66521.78;4940317;28;20511;-70
2022/09/15 05:26:29;;;;;;;11.70;2.08;;;;;;;-145.67;100.00;66521.78;4942479;28;20412;-70
2022/09/15 05:28:55;;;;;;;19.70;2.33;;;;;;;-145.67;100.00;66521.78;4934205;28;20040;-71
2022/09/15 05:31:29;;;;;;;20.30;2.33;;;;;;;-145.67;100.00;66521.78;4925761;28;20039;-71
2022/09/15 05:33:58;;;;;;;15.85;3.00;;;;;;;-145.67;100.00;66521.78;4922789;28;20223;-72
2022/09/15 05:36:24;;;;;;;16.80;2.05;;;;;;;-145.67;100.00;66521.78;4904913;28;20200;-71
2022/09/15 05:38:50;;;;;;;20.10;2.20;;;;;;;-145.67;100.00;66521.78;4924743;28;20168;-71
2022/09/15 05:41:18;;;;;;;14.20;2.10;;;;;;;-145.67;100.00;66521.78;4940358;28;20035;-71
2022/09/15 05:43:45;;;;;;;15.38;1.73;;;;;;;-145.67;100.00;66521.78;4921038;28;20054;-71
2022/09/15 05:46:11;;;;;;;17.88;1.90;;;;;;;-145.67;100.00;66521.78;4920624;28;20039;-71
2022/09/15 05:48:39;;;;;;;18.50;2.15;;;;;;;-145.67;100.00;66521.78;4941187;28;20115;-71
2022/09/15 05:51:06;;;;;;;15.07;1.80;;;;;;;-145.67;100.00;66521.78;4934517;28;20024;-70
2022/09/15 05:53:36;;;;;;;13.15;1.77;;;;;;;-145.67;100.00;66521.78;4913830;28;20090;-71
2022/09/15 05:56:04;;;;;;;10.52;1.40;;;;;;;-145.67;100.00;66521.78;4921035;28;20051;-70
2022/09/15 05:58:30;;;;;;;15.80;1.77;;;;;;;-145.67;100.00;66521.78;4918363;28;20035;-72
2022/09/15 06:01:06;;;;;;;15.68;2.20;;;;;;;-145.67;100.00;66521.78;4917419;28;20094;-71
2022/09/15 06:03:32;;;;;;;9.25;1.60;;;;;;;-145.67;100.00;66521.78;4903395;29;20050;-71
2022/09/15 06:05:59;;;;;;;11.35;0.98;;;;;;;-145.67;100.00;66521.78;4902422;29;20409;-71
2022/09/15 06:08:25;;;;;;;12.90;1.30;;;;;;;-145.67;100.00;66521.78;4916664;28;20457;-71
2022/09/15 06:10:50;;;;;;;14.48;1.40;;;;;;;-145.67;100.00;66521.78;4902137;29;20039;-72
2022/09/15 06:13:15;;;;;;;15.63;2.15;;;;;;;-145.67;100.00;66521.78;4902958;28;20146;-71
2022/09/15 06:15:43;;;;;;;9.40;1.27;;;;;;;-145.67;100.00;66521.78;4901787;29;20405;-71
2022/09/15 06:18:11;;;;;;;18.63;1.90;;;;;;;-145.67;100.00;66521.78;4901352;29;20127;-70
2022/09/15 06:20:37;;;;;;;10.13;1.33;;;;;;;-145.67;100.00;66521.78;4904599;29;20048;-70
2022/09/15 06:23:02;;;;;;;18.88;1.70;;;;;;;-145.67;100.00;66521.78;4903605;29;20059;-70
2022/09/15 06:25:28;;;;;;;11.68;1.60;;;;;;;-145.67;100.00;66521.78;4907309;29;20040;-71
2022/09/15 06:27:53;;;;;;;16.33;2.08;;;;;;;-145.67;100.00;66521.78;4904993;29;20038;-71
2022/09/15 06:30:19;;;;;;;14.15;1.67;;;;;;;-145.67;100.00;66521.78;4903943;29;20274;-70
2022/09/15 06:32:44;;;;;;;15.32;1.95;;;;;;;-145.67;100.00;66521.78;4897691;29;20317;-71
2022/09/15 06:35:09;;;;;;;10.88;1.42;;;;;;;-145.67;100.00;66521.78;4904065;29;20102;-71
2022/09/15 06:37:35;;;;;;;11.02;1.48;;;;;;;-145.67;100.00;66521.78;4903238;29;20100;-71
2022/09/15 06:40:00;;;;;;;12.68;1.73;;;;;;;-145.67;100.00;66521.78;4904600;29;20119;-71
2022/09/15 06:42:28;;;;;;;15.65;1.90;;;;;;;-145.67;100.00;66521.78;4904813;29;20267;-71
2022/09/15 06:44:54;;;;;;;11.82;1.52;;;;;;;-145.67;100.00;66521.78;4902120;29;20047;-71
2022/09/15 06:47:19;;;;;;;10.77;2.33;;;;;;;-145.67;100.00;66521.78;4903913;29;20295;-71
2022/09/15 06:49:44;;;;;;;12.35;1.58;;;;;;;-145.67;100.00;66521.78;4899000;29;20099;-70
2022/09/15 06:52:10;;;;;;;10.77;2.00;;;;;;;-145.67;100.00;66521.78;4912534;28;20039;-71
2022/09/15 06:54:36;;;;;;;12.63;2.03;;;;;;;-145.67;100.00;66521.78;4917478;29;20031;-71
2022/09/15 06:57:01;;;;;;;19.40;1.98;;;;;;;-145.67;100.00;66521.78;4911620;28;20055;-72
2022/09/15 06:59:29;;;;;;;13.88;2.28;;;;;;;-145.67;100.00;66521.78;4907558;28;20042;-69
2022/09/15 07:01:54;;;;;;;7.43;1.60;;;;;;;-145.67;100.00;66521.78;4923308;28;20346;-72
2022/09/15 07:04:21;;;;;;;8.18;1.60;;;;;;;-145.67;100.00;66521.78;4938067;28;20046;-71
2022/09/15 07:06:47;;;;;;;13.82;1.65;;;;;;;-145.67;100.00;66521.78;4908293;28;20351;-71
2022/09/15 07:09:12;;;;;;;17.48;2.00;;;;;;;-145.67;100.00;66521.78;4907675;28;20047;-72
2022/09/15 07:11:38;;;;;;;13.27;1.63;;;;;;;-145.67;100.00;66521.78;4929363;28;20045;-71
2022/09/15 07:14:08;;;;;;;14.70;2.33;;;;;;;-145.67;100.00;66521.78;4943276;28;20674;-72
2022/09/15 07:16:33;;;;;;;21.38;1.92;;;;;;;-145.67;100.00;66521.78;4943991;28;20050;-72
2022/09/15 07:19:02;;;;;;;17.65;1.90;;;;;;;-145.67;100.00;66521.78;4912481;28;20094;-73
2022/09/15 07:21:28;;;;;;;20.00;2.78;;;;;;;-145.67;100.00;66521.78;4946147;28;20493;-72
2022/09/15 07:23:55;;;;;;;21.55;2.35;;;;;;;-145.67;100.00;66521.78;4927807;28;20031;-71
2022/09/15 07:26:26;;;;;;;27.50;2.85;;;;;;;-145.67;100.00;66521.78;4924538;28;20038;-72
2022/09/15 07:28:57;;;;;;;18.17;2.42;;;;;;;-145.67;100.00;66521.78;4926331;28;20058;-73
2022/09/15 07:31:26;;;;;;;23.65;2.55;;;;;;;-145.67;100.00;66521.78;4929707;28;20156;-72
2022/09/15 07:36:34;;;;;;;21.50;2.55;;;;;;;-145.67;100.00;66521.78;4954028;23;20058;-72
2022/09/15 07:39:02;;;;;;;15.40;1.98;;;;;;;-145.67;100.00;66521.78;4951138;28;20092;-71
2022/09/15 07:41:30;;;;;;;12.85;1.55;;;;;;;-145.67;100.00;66521.78;4925664;28;20171;-69
2022/09/15 07:44:00;;;;;;;16.90;1.88;;;;;;;-145.67;100.00;66521.78;4939773;28;20391;-71
2022/09/15 07:46:28;;;;;;;14.52;1.92;;;;;;;-145.67;100.00;66521.78;4948146;28;20137;-71
2022/09/15 07:48:56;;;;;;;15.32;1.90;;;;;;;-145.67;100.00;66521.78;4932516;28;20574;-72
2022/09/15 07:51:23;;;;;;;13.13;1.48;;;;;;;-145.67;100.00;66521.78;4943513;28;20425;-72
2022/09/15 07:53:52;;;;;;;15.93;1.80;;;;;;;-145.67;100.00;66521.78;4962686;28;20041;-72
2022/09/15 07:56:18;;;;;;;8.80;1.80;;;;;;;-145.67;100.00;66521.78;4970834;28;20460;-72
2022/09/15 07:58:44;;;;;;;11.70;1.80;;;;;;;-145.67;100.00;66521.78;4968497;28;20064;-71
2022/09/15 08:01:10;;;;;;;12.82;1.83;;;;;;;-145.67;100.00;66521.78;4969945;28;20039;-70
2022/09/15 08:03:41;;;;;;;13.13;1.50;;;;;;;-145.67;100.00;66521.78;4971046;28;20034;-71
2022/09/15 08:06:06;;;;;;;15.35;1.70;;;;;;;-145.67;100.00;66521.78;4968865;28;20756;-72
2022/09/15 08:08:32;;;;;;;14.52;1.77;;;;;;;-145.67;100.00;66521.78;4982077;28;20057;-72
2022/09/15 08:10:57;;;;;;;17.35;1.83;;;;;;;-145.67;100.00;66521.78;4982198;28;20041;-70
2022/09/15 08:13:23;;;;;;;11.82;2.03;;;;;;;-145.67;100.00;66521.78;4955321;28;20037;-72
2022/09/15 08:15:49;;;;;;;10.85;1.52;;;;;;;-145.67;100.00;66521.78;4971212;28;20061;-71
2022/09/15 08:18:15;;;;;;;23.38;2.55;;;;;;;-145.67;100.00;66521.78;4977371;28;20088;-72
2022/09/15 08:20:43;;;;;;;18.30;1.92;;;;;;;-145.67;100.00;66521.78;4955112;28;20044;-70
2022/09/15 08:23:11;;;;;;;16.80;2.10;;;;;;;-145.67;100.00;66521.78;4962955;28;20784;-71
2022/09/15 08:25:40;;;;;;;16.85;2.22;;;;;;;-145.67;100.00;66521.78;4960680;28;20107;-72
2022/09/15 08:28:08;;;;;;;21.48;2.30;;;;;;;-145.67;100.00;66521.78;4941805;28;20057;-72
2022/09/15 08:30:36;;;;;;;18.67;2.10;;;;;;;-145.67;100.00;66521.78;4968124;28;20065;-72
2022/09/15 08:33:01;;;;;;;16.45;2.40;;;;;;;-145.67;100.00;66521.78;4965150;28;20842;-71
2022/09/15 08:35:28;;;;;;;20.05;2.35;;;;;;;-145.67;100.00;66521.78;4970632;28;20054;-71
2022/09/15 08:37:54;;;;;;;13.00;1.85;;;;;;;-145.67;100.00;66521.78;4949850;28;20164;-72
2022/09/15 08:40:27;;;;;;;24.05;2.58;;;;;;;-145.67;100.00;66521.78;4956227;28;20579;-72
2022/09/15 08:42:54;;;;;;;20.85;2.30;;;;;;;-145.67;100.00;66521.78;4967030;28;20038;-71
2022/09/15 08:45:40;;;;;;;18.73;2.45;;;;;;;-145.67;100.00;66521.78;4957201;28;20744;-71
2022/09/15 08:48:07;;;;;;;18.50;1.70;;;;;;;-145.67;100.00;66521.78;4967831;28;20122;-71
2022/09/15 08:50:41;;;;;;;10.68;1.80;;;;;;;-145.67;100.00;66521.78;4968487;28;20119;-71
2022/09/15 08:53:19;;;;;;;13.35;1.70;;;;;;;-145.67;100.00;66521.78;4950854;28;20683;-72
2022/09/15 08:55:54;;;;;;;12.95;1.67;;;;;;;-145.67;100.00;66521.78;4957715;28;20041;-73
2022/09/15 08:58:25;;;;;;;12.43;1.80;;;;;;;-145.67;100.00;66521.78;4966685;28;20034;-72
2022/09/15 09:00:59;;;;;;;10.20;1.73;;;;;;;-145.67;100.00;66521.78;4960360;28;20034;-72
2022/09/15 09:03:34;;;;;;;12.52;2.00;;;;;;;-145.67;100.00;66521.78;4967354;28;20157;-71
2022/09/15 09:06:07;;;;;;;19.27;2.40;;;;;;;-145.67;100.00;66521.78;4969226;28;20084;-71
2022/09/15 09:08:51;;;;;;;16.65;2.03;;;;;;;-145.67;100.00;66521.78;4948325;28;20567;-72
2022/09/15 09:11:48;;;;;;;15.88;2.00;;;;;;;-145.67;100.00;66521.78;4963481;28;20049;-72
2022/09/15 09:14:44;;;;;;;21.95;2.30;;;;;;;-145.67;100.00;66521.78;4955724;28;20048;-72
2022/09/15 09:17:33;;;;;;;18.42;1.85;;;;;;;-145.67;100.00;66521.78;4966930;28;20060;-72
2022/09/15 09:20:22;;;;;;;15.40;1.90;;;;;;;-145.67;100.00;66521.78;4968557;28;20173;-73
2022/09/15 09:22:49;;;;;;;21.27;2.05;;;;;;;-145.67;100.00;66521.78;4963905;28;20517;-71
2022/09/15 09:25:17;;;;;;;20.77;2.03;;;;;;;-145.67;100.00;66521.78;4958657;28;20590;-70
2022/09/15 09:27:43;;;;;;;16.02;1.73;;;;;;;-145.67;100.00;66521.78;4968269;28;20043;-71
2022/09/15 09:30:11;;;;;;;17.42;1.77;;;;;;;-145.67;100.00;66521.78;4939544;28;20037;-71
2022/09/15 09:33:11;;;;;;;22.23;2.78;;;;;;;-145.67;100.00;66521.78;4966716;28;20056;-72
2022/09/15 09:35:51;;;;;;;21.05;2.20;;;;;;;-145.67;100.00;66521.78;4944607;28;20060;-68
2022/09/15 09:38:27;;;;;;;18.92;2.83;;;;;;;-145.67;100.00;66521.78;4968074;28;20147;-72
2022/09/15 09:40:53;;;;;;;20.70;2.50;;;;;;;-145.67;100.00;66521.78;4967313;28;20602;-71
2022/09/15 09:43:19;;;;;;;14.02;1.85;;;;;;;-145.67;100.00;66521.78;4967270;28;20139;-71
2022/09/15 09:45:47;;;;;;;14.43;2.05;;;;;;;-145.67;100.00;66521.78;4966562;28;20029;-72
2022/09/15 09:48:23;;;;;;;17.25;2.13;;;;;;;-145.67;100.00;66521.78;4964980;28;20068;-70
2022/09/15 09:50:49;;;;;;;22.45;2.30;;;;;;;-145.67;100.00;66521.78;4948947;28;20049;-71
2022/09/15 09:53:25;;;;;;;14.00;2.22;;;;;;;-145.67;100.00;66521.78;4954369;28;20224;-70
2022/09/15 09:55:53;;;;;;;11.57;2.08;;;;;;;-145.67;100.00;66521.78;4967090;28;20049;-71
2022/09/15 09:58:22;;;;;;;14.18;1.63;;;;;;;-145.67;100.00;66521.78;4954453;28;20188;-72
2022/09/15 10:00:49;;;;;;;12.27;1.85;;;;;;;-145.67;100.00;66521.78;4968493;28;21809;-71
2022/09/15 10:03:14;;;;;;;18.88;1.90;;;;;;;-145.67;100.00;66521.78;4958215;28;20025;-72
2022/09/15 10:05:40;;;;;;;14.05;1.55;;;;;;;-145.67;100.00;66521.78;4971341;28;20064;-72
2022/09/15 10:08:14;;;;;;;14.07;1.65;;;;;;;-145.67;100.00;66521.78;4964283;28;20040;-72
2022/09/15 10:10:48;;;;;;;11.02;1.90;;;;;;;-145.67;100.00;66521.78;4966362;28;20034;-71
2022/09/15 10:13:14;;;;;;;16.67;2.08;;;;;;;-145.67;100.00;66521.78;4956852;28;20123;-72
2022/09/15 10:15:39;;;;;;;16.30;1.92;;;;;;;-145.67;100.00;66521.78;4966959;28;20057;-72
2022/09/15 10:18:06;;;;;;;10.48;1.63;;;;;;;-145.67;100.00;66521.78;4966060;28;20459;-71
2022/09/15 10:20:34;;;;;;;20.52;2.35;;;;;;;-145.67;100.00;66521.78;4966422;28;20581;-72
2022/09/15 10:23:15;;;;;;;24.48;2.33;;;;;;;-145.67;100.00;66521.78;4953887;28;20502;-72
2022/09/15 10:25:40;;;;;;;12.55;1.95;;;;;;;-145.67;100.00;66521.78;4967966;28;20034;-72
2022/09/15 10:28:13;;;;;;;12.00;1.65;;;;;;;-145.67;100.00;66521.78;4950019;28;20634;-71
2022/09/15 10:30:58;;;;;;;12.40;1.70;;;;;;;-145.67;100.00;66521.78;4970412;28;20041;-71
2022/09/15 10:33:24;;;;;;;21.50;2.00;;;;;;;-145.67;100.00;66521.78;4941315;28;20072;-72
2022/09/15 10:35:50;;;;;;;17.73;1.90;;;;;;;-145.67;100.00;66521.78;4955686;28;20438;-73
2022/09/15 10:38:20;;;;;;;15.68;1.75;;;;;;;-145.67;100.00;66521.78;4961225;28;20448;-74
2022/09/15 10:40:56;;;;;;;19.75;2.17;;;;;;;-145.67;100.00;66521.78;4978823;28;20108;-74
2022/09/15 10:43:55;;;;;;;22.27;2.50;;;;;;;-145.67;100.00;66521.78;4967606;28;20048;-72
2022/09/15 10:46:31;;;;;;;16.92;1.50;;;;;;;-145.67;100.00;66521.78;4971357;28;20445;-69
2022/09/15 10:49:05;;;;;;;19.50;1.92;;;;;;;-145.67;100.00;66521.78;4960570;28;20046;-71
2022/09/15 10:51:58;;;;;;;11.25;1.60;;;;;;;-145.67;100.00;66521.78;4977815;28;20140;-73
2022/09/15 10:54:33;;;;;;;12.60;1.63;;;;;;;-145.67;100.00;66521.78;4977633;28;20100;-71
2022/09/15 10:57:10;;;;;;;8.43;1.33;;;;;;;-145.67;100.00;66521.78;4973031;28;20049;-74
2022/09/15 10:59:44;;;;;;;16.88;2.13;;;;;;;-145.67;100.00;66521.78;4962809;28;20612;-72
2022/09/15 11:02:31;;;;;;;12.10;1.40;;;;;;;-145.67;100.00;66521.78;4974257;28;20498;-73
2022/09/15 11:05:14;;;;;;;9.85;1.73;;;;;;;-145.67;100.00;66521.78;4978845;28;20482;-74
2022/09/15 11:07:43;;;;;;;11.73;1.58;;;;;;;-145.67;100.00;66521.78;4978025;28;20030;-73
2022/09/15 11:10:25;;;;;;;16.38;2.28;;;;;;;-145.67;100.00;66521.78;4964667;28;20691;-75
2022/09/15 11:13:22;;;;;;;21.90;2.40;;;;;;;-145.67;100.00;66521.78;4967583;28;20068;-74
2022/09/15 11:15:53;;;;;;;10.82;1.60;;;;;;;-145.67;100.00;66521.78;4957154;28;20053;-71
2022/09/15 11:18:35;;;;;;;14.75;2.13;;;;;;;-145.67;100.00;66521.78;4957068;28;20056;-71
2022/09/15 11:21:15;;;;;;;14.60;1.90;;;;;;;-145.67;100.00;66521.78;4970671;28;20073;-71
2022/09/15 11:23:47;;;;;;;12.93;2.00;;;;;;;-145.67;100.00;66521.78;4973328;28;20042;-71